Time;durP1;ratioP1;P1;durP2;ratioP2;P2;SDS_P1;SDS_P2;PMS_P1;PMS_P2;Temp;Humidity;BMP_temperature;BMP_pressure;BME280_temperature;BME280_humidity;BME280_pressure;Samples;Min_cycle;Max_cycle;Signal;HPM_P1;HPM_P2
2023/09/04 00:01:55;;;;;;;4.80;3.90;;;17.00;99.90;;;;;;5054639;28;20368;-84
2023/09/04 00:04:21;;;;;;;4.40;4.00;;;16.90;99.90;;;;;;5044762;28;20028;-84
2023/09/04 00:06:46;;;;;;;4.95;4.05;;;16.90;99.90;;;;;;5062823;28;20024;-84
2023/09/04 00:09:14;;;;;;;5.03;3.80;;;16.90;99.90;;;;;;5054993;28;20155;-85
2023/09/04 00:11:40;;;;;;;4.45;3.72;;;17.00;99.90;;;;;;5064441;28;20472;-84
2023/09/04 00:14:06;;;;;;;5.65;4.00;;;16.90;99.90;;;;;;5048683;28;20098;-84
2023/09/04 00:16:32;;;;;;;5.10;4.28;;;17.00;99.90;;;;;;5049884;28;20380;-84
2023/09/04 00:18:58;;;;;;;5.85;4.00;;;17.00;99.90;;;;;;5043915;28;20041;-84
2023/09/04 00:21:23;;;;;;;6.28;4.03;;;17.00;99.90;;;;;;5030426;28;20025;-84
2023/09/04 00:23:49;;;;;;;4.70;4.30;;;17.00;99.90;;;;;;5052015;28;20032;-84
2023/09/04 00:26:14;;;;;;;4.40;4.00;;;17.00;99.90;;;;;;5071326;28;20024;-84
2023/09/04 00:28:40;;;;;;;4.93;4.28;;;17.00;99.90;;;;;;5090414;28;20121;-84
2023/09/04 00:31:06;;;;;;;4.00;3.60;;;17.00;99.90;;;;;;5079803;28;20028;-84
2023/09/04 00:33:32;;;;;;;5.30;4.25;;;16.90;99.90;;;;;;5083836;28;20004;-84
2023/09/04 00:35:58;;;;;;;4.53;4.13;;;16.90;99.90;;;;;;5096938;28;20032;-84
2023/09/04 00:38:24;;;;;;;4.28;3.88;;;16.90;99.90;;;;;;5054008;28;20361;-84
2023/09/04 00:40:49;;;;;;;4.75;4.10;;;16.90;99.90;;;;;;5043621;28;20452;-84
2023/09/04 00:43:15;;;;;;;4.72;3.92;;;16.80;99.90;;;;;;5057047;28;20023;-84
2023/09/04 00:45:43;;;;;;;5.03;4.07;;;16.80;99.90;;;;;;5060491;28;20028;-84
2023/09/04 00:48:10;;;;;;;4.68;4.28;;;16.80;99.90;;;;;;5050045;28;20059;-84
2023/09/04 00:50:37;;;;;;;4.57;4.18;;;16.80;99.90;;;;;;5034172;28;20024;-84
2023/09/04 00:53:06;;;;;;;5.13;4.40;;;16.80;99.90;;;;;;5041682;28;20029;-85
2023/09/04 00:55:32;;;;;;;6.00;4.30;;;16.80;99.90;;;;;;5083687;28;20024;-84
2023/09/04 00:57:58;;;;;;;6.22;4.72;;;16.80;99.90;;;;;;5041466;28;20041;-84
2023/09/04 01:00:27;;;;;;;5.55;4.55;;;16.80;99.90;;;;;;5063628;28;20074;-84
2023/09/04 01:02:53;;;;;;;5.28;4.50;;;16.80;99.90;;;;;;5054929;28;20353;-84
2023/09/04 01:05:19;;;;;;;6.00;4.82;;;16.80;99.90;;;;;;5074809;28;20464;-84
2023/09/04 01:07:58;;;;;;;6.38;4.68;;;16.80;99.90;;;;;;5060418;28;20025;-84
2023/09/04 01:10:28;;;;;;;4.80;4.30;;;16.80;99.90;;;;;;5058255;28;20017;-84
2023/09/04 01:13:29;;;;;;;5.88;4.68;;;16.80;99.90;;;;;;5066311;28;20039;-84
2023/09/04 01:15:56;;;;;;;5.72;5.05;;;16.70;99.90;;;;;;5039418;28;20116;-84
2023/09/04 01:18:23;;;;;;;5.07;4.50;;;16.80;99.90;;;;;;5042950;28;20028;-84
2023/09/04 01:21:02;;;;;;;5.03;4.50;;;16.80;99.90;;;;;;5057936;28;20020;-83
2023/09/04 01:23:28;;;;;;;4.80;4.30;;;16.80;99.90;;;;;;5074711;28;20115;-84
2023/09/04 01:26:17;;;;;;;5.95;5.10;;;16.80;99.90;;;;;;5058080;28;20481;-84
2023/09/04 01:28:47;;;;;;;6.78;4.78;;;16.80;99.90;;;;;;5074926;28;20032;-84
2023/09/04 01:31:26;;;;;;;5.95;4.93;;;16.80;99.90;;;;;;5088151;28;20034;-84
2023/09/04 01:34:02;;;;;;;6.35;4.40;;;16.80;99.90;;;;;;5061702;28;20475;-84
2023/09/04 01:36:31;;;;;;;5.95;4.97;;;16.80;99.90;;;;;;5057980;28;20029;-83
2023/09/04 01:38:57;;;;;;;5.45;4.95;;;16.70;99.90;;;;;;5063967;28;20102;-84
2023/09/04 01:41:23;;;;;;;6.03;4.97;;;16.70;99.90;;;;;;5031295;28;20175;-84
2023/09/04 01:43:49;;;;;;;5.97;5.32;;;16.80;99.90;;;;;;5072951;28;20353;-84
2023/09/04 01:46:15;;;;;;;5.25;4.75;;;16.80;99.90;;;;;;5043555;28;20036;-84
2023/09/04 01:48:41;;;;;;;5.75;4.88;;;16.70;99.90;;;;;;5057112;28;20039;-84
2023/09/04 01:51:06;;;;;;;6.80;5.22;;;16.80;99.90;;;;;;5043478;28;20419;-84
2023/09/04 01:53:32;;;;;;;6.22;5.68;;;16.80;99.90;;;;;;5048891;28;20028;-84
2023/09/04 01:55:58;;;;;;;6.80;5.65;;;16.70;99.90;;;;;;5026268;28;20120;-84
2023/09/04 01:58:25;;;;;;;6.13;5.20;;;16.70;99.90;;;;;;5040990;28;20025;-84
2023/09/04 02:00:50;;;;;;;6.28;5.68;;;16.70;99.90;;;;;;5040289;28;20028;-84
2023/09/04 02:03:16;;;;;;;6.32;5.28;;;16.70;99.90;;;;;;5039174;28;20031;-84
2023/09/04 02:05:42;;;;;;;7.07;6.07;;;16.70;99.90;;;;;;5057700;28;20064;-84
2023/09/04 02:08:08;;;;;;;7.18;5.95;;;16.70;99.90;;;;;;5040997;28;20036;-84
2023/09/04 02:10:35;;;;;;;6.22;5.63;;;16.70;99.90;;;;;;5055296;28;20029;-84
2023/09/04 02:13:01;;;;;;;5.70;5.20;;;16.70;99.90;;;;;;5032609;28;20025;-84
2023/09/04 02:15:31;;;;;;;6.20;5.45;;;16.60;99.90;;;;;;5085716;28;20029;-84
2023/09/04 02:17:56;;;;;;;7.05;6.30;;;16.70;99.90;;;;;;5068121;28;20015;-83
2023/09/04 02:20:22;;;;;;;6.90;5.75;;;16.60;99.90;;;;;;5098711;28;20076;-83
2023/09/04 02:22:48;;;;;;;7.35;5.90;;;16.60;99.90;;;;;;5044228;28;20100;-81
2023/09/04 02:25:14;;;;;;;6.13;5.53;;;16.60;99.90;;;;;;5070669;28;20032;-84
2023/09/04 02:27:39;;;;;;;5.90;5.32;;;16.60;99.90;;;;;;5034231;28;20036;-83
2023/09/04 02:30:08;;;;;;;7.97;6.15;;;16.60;99.90;;;;;;5040279;28;20077;-83
2023/09/04 02:32:34;;;;;;;6.45;5.60;;;16.60;99.90;;;;;;5057131;28;20023;-83
2023/09/04 02:35:00;;;;;;;5.95;5.35;;;16.60;99.90;;;;;;5024403;28;20115;-84
2023/09/04 02:37:27;;;;;;;7.75;6.60;;;16.60;99.90;;;;;;5056919;28;20403;-83
2023/09/04 02:39:52;;;;;;;6.82;5.93;;;16.60;99.90;;;;;;5013744;28;20024;-85
2023/09/04 02:42:18;;;;;;;6.30;5.70;;;16.60;99.90;;;;;;5041740;28;20025;-84
2023/09/04 02:44:44;;;;;;;6.45;5.85;;;16.60;99.90;;;;;;5050539;28;20025;-84
2023/09/04 02:47:09;;;;;;;8.07;6.68;;;16.60;99.90;;;;;;5040994;28;20025;-85
2023/09/04 02:49:35;;;;;;;8.57;6.60;;;16.50;99.90;;;;;;5014774;28;20040;-84
2023/09/04 02:52:01;;;;;;;6.47;5.88;;;16.50;99.90;;;;;;5020775;28;20024;-84
2023/09/04 02:54:26;;;;;;;6.50;5.90;;;16.50;99.90;;;;;;5043431;28;20107;-84
2023/09/04 02:56:52;;;;;;;6.78;5.90;;;16.50;99.90;;;;;;5053442;28;20039;-84
2023/09/04 02:59:18;;;;;;;6.32;5.57;;;16.50;99.90;;;;;;5071398;28;20036;-84
2023/09/04 03:01:43;;;;;;;7.40;6.22;;;16.50;99.90;;;;;;5021439;28;20021;-85
2023/09/04 03:04:11;;;;;;;7.05;6.30;;;16.50;99.90;;;;;;5055298;28;20028;-84
2023/09/04 03:06:38;;;;;;;7.32;6.57;;;16.40;99.90;;;;;;5070234;28;20039;-84
2023/09/04 03:09:04;;;;;;;6.95;6.18;;;16.40;99.90;;;;;;5055712;28;20039;-84
2023/09/04 03:11:30;;;;;;;8.63;6.35;;;16.30;99.90;;;;;;5072728;28;20017;-83
2023/09/04 03:13:56;;;;;;;9.07;5.82;;;16.40;99.90;;;;;;5073260;28;20482;-84
2023/09/04 03:16:22;;;;;;;6.38;5.47;;;16.30;99.90;;;;;;5073275;28;20047;-84
2023/09/04 03:18:47;;;;;;;6.65;6.00;;;16.40;99.90;;;;;;5038634;28;20067;-84
2023/09/04 03:21:13;;;;;;;6.45;5.85;;;16.40;99.90;;;;;;5022459;28;20123;-84
2023/09/04 03:23:38;;;;;;;8.73;6.68;;;16.30;99.90;;;;;;5055841;28;20020;-84
2023/09/04 03:26:04;;;;;;;7.18;6.47;;;16.30;99.90;;;;;;5038965;28;20031;-84
2023/09/04 03:28:30;;;;;;;6.55;5.95;;;16.30;99.90;;;;;;5037777;28;20123;-84
2023/09/04 03:30:55;;;;;;;7.40;6.68;;;16.30;99.90;;;;;;5055362;28;20071;-84
2023/09/04 03:33:21;;;;;;;8.00;6.60;;;16.30;99.90;;;;;;5051528;28;20024;-84
2023/09/04 03:35:47;;;;;;;7.38;6.32;;;16.30;99.90;;;;;;5042277;28;20029;-84
2023/09/04 03:38:13;;;;;;;6.55;5.95;;;16.20;99.90;;;;;;5049393;28;20032;-84
2023/09/04 03:40:39;;;;;;;6.88;6.18;;;16.20;99.90;;;;;;5036869;28;20377;-84
2023/09/04 03:43:05;;;;;;;7.65;6.90;;;16.20;99.90;;;;;;5054378;28;20028;-83
2023/09/04 03:45:35;;;;;;;7.05;6.25;;;16.20;99.90;;;;;;5054509;28;20081;-84
2023/09/04 03:48:01;;;;;;;7.35;6.65;;;16.20;99.90;;;;;;5037128;28;20025;-84
2023/09/04 03:50:27;;;;;;;7.60;6.80;;;16.10;99.90;;;;;;5054424;28;20116;-84
2023/09/04 03:52:53;;;;;;;7.15;6.45;;;16.20;99.90;;;;;;5052318;28;20116;-84
2023/09/04 03:55:19;;;;;;;8.93;6.68;;;16.20;99.90;;;;;;5075339;28;20039;-85
2023/09/04 03:57:51;;;;;;;6.75;6.07;;;16.20;99.90;;;;;;5038889;28;20037;-84
2023/09/04 04:00:18;;;;;;;9.50;7.32;;;16.20;99.90;;;;;;5077485;27;20031;-84
2023/09/04 04:02:45;;;;;;;8.02;7.00;;;16.20;99.90;;;;;;5065610;28;20013;-84
2023/09/04 04:05:12;;;;;;;7.50;6.70;;;16.20;99.90;;;;;;5100629;28;20040;-83
2023/09/04 04:07:38;;;;;;;7.38;6.68;;;16.20;99.90;;;;;;5084143;28;20009;-84
2023/09/04 04:10:05;;;;;;;7.72;6.57;;;16.20;99.90;;;;;;5057669;28;20024;-81
2023/09/04 04:12:31;;;;;;;7.95;7.15;;;16.20;99.90;;;;;;5058049;28;20078;-84
2023/09/04 04:14:57;;;;;;;7.70;6.85;;;16.20;99.90;;;;;;5023105;28;20175;-84
2023/09/04 04:17:26;;;;;;;8.63;7.72;;;16.20;99.90;;;;;;5029834;28;20036;-84
2023/09/04 04:19:53;;;;;;;8.40;7.22;;;16.20;99.90;;;;;;5058934;28;20028;-85
2023/09/04 04:22:23;;;;;;;7.82;7.03;;;16.20;99.90;;;;;;5088080;28;20020;-84
2023/09/04 04:24:49;;;;;;;7.85;7.05;;;16.10;99.90;;;;;;5084168;28;20483;-84
2023/09/04 04:27:16;;;;;;;10.05;7.85;;;16.10;99.90;;;;;;5047838;28;20016;-84
2023/09/04 04:29:46;;;;;;;8.07;7.32;;;16.10;99.90;;;;;;5031002;28;20060;-84
2023/09/04 04:32:11;;;;;;;7.82;6.85;;;16.10;99.90;;;;;;5066223;28;20041;-83
2023/09/04 04:34:39;;;;;;;7.93;7.15;;;16.10;99.90;;;;;;5031165;28;20024;-83
2023/09/04 04:37:05;;;;;;;8.30;7.22;;;16.10;99.90;;;;;;5049376;28;20452;-83
2023/09/04 04:39:30;;;;;;;8.70;7.80;;;16.10;99.90;;;;;;5058315;28;20100;-84
2023/09/04 04:41:56;;;;;;;8.95;7.35;;;16.10;99.90;;;;;;5047177;28;20116;-84
2023/09/04 04:44:22;;;;;;;8.10;7.30;;;16.10;99.90;;;;;;5031759;28;20021;-83
2023/09/04 04:46:47;;;;;;;8.40;7.60;;;16.10;99.90;;;;;;5019409;28;20127;-83
2023/09/04 04:49:22;;;;;;;8.02;7.30;;;16.10;99.90;;;;;;5033353;28;20102;-82
2023/09/04 04:51:51;;;;;;;8.38;7.57;;;16.10;99.90;;;;;;5069779;28;20136;-82
2023/09/04 04:54:19;;;;;;;8.25;7.43;;;16.10;99.90;;;;;;5030223;28;20029;-83
2023/09/04 04:56:45;;;;;;;8.38;7.50;;;16.10;99.90;;;;;;5030515;28;20032;-83
2023/09/04 04:59:11;;;;;;;8.38;7.57;;;16.10;99.90;;;;;;5018358;28;20025;-83
2023/09/04 05:01:37;;;;;;;9.43;8.30;;;16.10;99.90;;;;;;5044089;28;20032;-82
2023/09/04 05:04:03;;;;;;;8.68;7.55;;;16.00;99.90;;;;;;5042579;28;20465;-83
2023/09/04 05:06:28;;;;;;;8.43;7.53;;;16.00;99.90;;;;;;5042190;28;20033;-84
2023/09/04 05:08:54;;;;;;;9.23;8.30;;;16.10;99.90;;;;;;5057364;28;20464;-84
2023/09/04 05:11:20;;;;;;;9.35;8.20;;;16.00;99.90;;;;;;5044878;28;20449;-84
2023/09/04 05:13:45;;;;;;;8.15;7.35;;;16.00;99.90;;;;;;5047864;28;20035;-84
2023/09/04 05:16:11;;;;;;;8.77;7.82;;;16.10;99.90;;;;;;5020832;28;20037;-84
2023/09/04 05:18:36;;;;;;;9.35;7.78;;;16.10;99.90;;;;;;5057622;28;20016;-84
2023/09/04 05:21:06;;;;;;;8.25;7.45;;;16.10;99.90;;;;;;5044975;28;20487;-85
2023/09/04 05:23:36;;;;;;;8.20;7.33;;;16.10;99.90;;;;;;5030740;28;20065;-85
2023/09/04 05:26:02;;;;;;;7.32;6.63;;;16.10;99.90;;;;;;5068260;28;20773;-85
2023/09/04 05:28:28;;;;;;;8.30;7.40;;;16.10;99.90;;;;;;5081096;28;20100;-85
2023/09/04 05:30:54;;;;;;;9.05;8.15;;;16.10;99.90;;;;;;5040544;28;20025;-85
2023/09/04 05:33:20;;;;;;;8.18;7.38;;;16.10;99.90;;;;;;5058847;28;20102;-85
2023/09/04 05:35:55;;;;;;;8.98;8.10;;;16.10;99.90;;;;;;5047078;28;20122;-85
2023/09/04 05:38:21;;;;;;;9.10;8.00;;;16.10;99.90;;;;;;5047371;28;20025;-84
2023/09/04 05:40:49;;;;;;;8.27;7.47;;;16.10;99.90;;;;;;5048477;28;20357;-85
2023/09/04 05:43:14;;;;;;;10.45;7.85;;;16.10;99.90;;;;;;5082284;28;20020;-85
2023/09/04 05:45:40;;;;;;;7.97;7.20;;;16.10;99.90;;;;;;5036781;28;20032;-83
2023/09/04 05:48:06;;;;;;;8.27;7.47;;;16.10;99.90;;;;;;5047990;28;20004;-85
2023/09/04 05:50:32;;;;;;;7.68;6.97;;;16.10;99.90;;;;;;5062583;28;20031;-85
2023/09/04 05:52:57;;;;;;;8.98;8.07;;;16.10;99.90;;;;;;5027249;28;20017;-82
2023/09/04 05:55:23;;;;;;;9.25;7.75;;;16.20;99.90;;;;;;5031836;28;20029;-85
2023/09/04 05:57:49;;;;;;;8.00;7.20;;;16.20;99.90;;;;;;5022638;28;20031;-85
2023/09/04 06:00:14;;;;;;;8.57;7.78;;;16.20;99.90;;;;;;5022324;28;20021;-85
2023/09/04 06:02:40;;;;;;;9.23;8.20;;;16.20;99.90;;;;;;5048948;28;20024;-85
2023/09/04 06:05:06;;;;;;;9.32;8.35;;;16.20;99.90;;;;;;5024321;28;20497;-85
2023/09/04 06:07:32;;;;;;;8.50;7.65;;;16.30;99.90;;;;;;5040196;28;20406;-83
2023/09/04 06:09:57;;;;;;;8.30;7.50;;;16.30;99.90;;;;;;5040334;28;20120;-84
2023/09/04 06:12:23;;;;;;;8.10;7.30;;;16.30;99.90;;;;;;5040148;28;20024;-84
2023/09/04 06:14:49;;;;;;;9.23;8.32;;;16.30;99.90;;;;;;5056603;28;20431;-84
2023/09/04 06:17:14;;;;;;;9.18;7.35;;;16.30;99.90;;;;;;5056693;28;20516;-85
2023/09/04 06:19:40;;;;;;;8.98;7.63;;;16.30;99.90;;;;;;5023451;28;20171;-84
2023/09/04 06:22:05;;;;;;;8.50;7.70;;;16.30;99.90;;;;;;5046854;28;20044;-84
2023/09/04 06:24:32;;;;;;;8.70;7.72;;;16.40;99.90;;;;;;5036278;28;20115;-84
2023/09/04 06:26:57;;;;;;;8.90;7.93;;;16.40;99.90;;;;;;5039659;28;20391;-84
2023/09/04 06:29:23;;;;;;;8.75;7.45;;;16.50;99.90;;;;;;5044754;28;20045;-84
2023/09/04 06:31:49;;;;;;;8.52;7.53;;;16.50;99.90;;;;;;5000270;28;20033;-84
2023/09/04 06:34:15;;;;;;;12.00;8.38;;;16.50;99.90;;;;;;5034330;28;20352;-84
2023/09/04 06:36:41;;;;;;;9.00;8.10;;;16.60;99.90;;;;;;5052795;28;20025;-84
2023/09/04 06:39:06;;;;;;;8.43;7.30;;;16.60;99.90;;;;;;5036356;28;20571;-84
2023/09/04 06:41:32;;;;;;;8.18;7.38;;;16.60;99.90;;;;;;5036218;28;20024;-84
2023/09/04 06:43:58;;;;;;;8.27;7.00;;;16.70;99.90;;;;;;5052436;28;20033;-84
2023/09/04 06:46:24;;;;;;;8.73;7.82;;;16.70;99.90;;;;;;5053133;28;20029;-84
2023/09/04 06:48:50;;;;;;;9.05;7.38;;;16.80;99.90;;;;;;5033859;28;20021;-84
2023/09/04 06:51:16;;;;;;;8.35;7.63;;;16.80;99.90;;;;;;5024509;28;20413;-84
2023/09/04 06:53:42;;;;;;;10.82;8.18;;;16.90;99.90;;;;;;5035420;28;20087;-84
2023/09/04 06:56:08;;;;;;;9.15;8.25;;;16.90;99.90;;;;;;5036161;28;20120;-84
2023/09/04 06:58:34;;;;;;;8.65;7.78;;;16.90;99.90;;;;;;5054072;28;20524;-84
2023/09/04 07:01:04;;;;;;;7.78;6.97;;;17.00;99.90;;;;;;5052585;28;20017;-84
2023/09/04 07:03:29;;;;;;;10.73;8.43;;;17.00;99.90;;;;;;5053828;28;20024;-84
2023/09/04 07:05:55;;;;;;;8.38;7.50;;;17.10;99.90;;;;;;5049039;28;20021;-84
2023/09/04 07:08:22;;;;;;;8.15;7.38;;;17.10;99.90;;;;;;5033963;28;20018;-84
2023/09/04 07:10:48;;;;;;;8.57;7.70;;;17.20;99.90;;;;;;5032297;28;20454;-84
2023/09/04 07:13:14;;;;;;;8.85;7.60;;;17.20;99.90;;;;;;5035966;28;20021;-84
2023/09/04 07:15:44;;;;;;;10.70;7.88;;;17.30;99.90;;;;;;5041708;28;20015;-85
2023/09/04 07:18:10;;;;;;;9.60;8.20;;;17.40;99.90;;;;;;5017032;28;20079;-85
2023/09/04 07:20:35;;;;;;;8.05;7.25;;;17.40;99.90;;;;;;5042188;28;20021;-84
2023/09/04 07:23:01;;;;;;;7.45;6.75;;;17.50;99.90;;;;;;5019601;28;20032;-85
2023/09/04 07:25:26;;;;;;;8.05;7.25;;;17.50;99.90;;;;;;5033100;28;20087;-85
2023/09/04 07:27:52;;;;;;;8.13;7.32;;;17.60;99.90;;;;;;5033944;28;20479;-85
2023/09/04 07:30:18;;;;;;;8.52;7.63;;;17.60;99.90;;;;;;5028368;28;20078;-84
2023/09/04 07:32:43;;;;;;;8.48;7.68;;;17.70;99.90;;;;;;5075539;28;20029;-85
2023/09/04 07:35:10;;;;;;;8.90;7.43;;;17.70;99.90;;;;;;5077670;28;20052;-84
2023/09/04 07:37:35;;;;;;;8.73;7.82;;;17.80;99.90;;;;;;5041839;28;20025;-85
2023/09/04 07:40:04;;;;;;;8.02;7.22;;;17.80;99.90;;;;;;5052059;28;20025;-84
2023/09/04 07:42:30;;;;;;;7.75;6.95;;;17.90;99.90;;;;;;5061494;28;20024;-85
2023/09/04 07:44:56;;;;;;;8.02;7.22;;;17.90;99.90;;;;;;5028037;28;20021;-85
2023/09/04 07:47:22;;;;;;;8.20;7.25;;;18.00;99.90;;;;;;5035843;28;20376;-84
2023/09/04 07:49:48;;;;;;;8.77;7.43;;;18.10;99.90;;;;;;5052956;28;20461;-85
2023/09/04 07:52:14;;;;;;;10.23;7.72;;;18.20;99.90;;;;;;5041833;28;20031;-85
2023/09/04 07:54:39;;;;;;;8.20;7.15;;;18.20;99.90;;;;;;5019115;28;20029;-84
2023/09/04 07:57:07;;;;;;;8.00;7.20;;;18.20;99.90;;;;;;5018758;28;20347;-85
2023/09/04 07:59:33;;;;;;;8.57;6.72;;;18.30;99.90;;;;;;5052417;28;20017;-85
2023/09/04 08:01:59;;;;;;;7.22;6.53;;;18.40;99.90;;;;;;5047301;28;20367;-85
2023/09/04 08:04:24;;;;;;;8.50;6.50;;;18.40;99.90;;;;;;5055178;28;20081;-85
2023/09/04 08:06:50;;;;;;;9.57;6.65;;;18.50;99.90;;;;;;5054913;28;20424;-84
2023/09/04 08:09:16;;;;;;;6.82;6.22;;;18.60;99.90;;;;;;5038593;28;20016;-85
2023/09/04 08:11:42;;;;;;;7.32;6.13;;;18.60;99.90;;;;;;5026220;28;20025;-85
2023/09/04 08:14:07;;;;;;;6.85;5.70;;;18.70;99.90;;;;;;5035037;28;20433;-84
2023/09/04 08:16:33;;;;;;;8.00;5.72;;;18.80;99.90;;;;;;5071814;28;20447;-85
2023/09/04 08:18:59;;;;;;;8.27;6.00;;;18.90;99.90;;;;;;5054748;28;20029;-85
2023/09/04 08:21:25;;;;;;;5.95;5.40;;;18.90;99.90;;;;;;5037347;28;20028;-85
2023/09/04 08:23:50;;;;;;;6.60;5.85;;;19.00;99.90;;;;;;5018555;28;20534;-85
2023/09/04 08:26:16;;;;;;;6.13;5.50;;;19.10;99.90;;;;;;5018835;28;20025;-85
2023/09/04 08:28:42;;;;;;;7.35;5.93;;;19.10;99.90;;;;;;5034642;28;20068;-85
2023/09/04 08:31:10;;;;;;;7.07;5.63;;;19.20;99.90;;;;;;5054630;28;20392;-85
2023/09/04 08:33:35;;;;;;;7.55;5.82;;;19.30;99.90;;;;;;5054839;28;20115;-85
2023/09/04 08:36:02;;;;;;;5.05;4.53;;;19.30;99.90;;;;;;5054316;28;20215;-85
2023/09/04 08:38:27;;;;;;;5.38;4.50;;;19.50;99.90;;;;;;5044399;28;20020;-84
2023/09/04 08:40:58;;;;;;;4.75;4.10;;;19.50;99.90;;;;;;5035267;28;20435;-85
2023/09/04 08:43:28;;;;;;;5.47;4.72;;;19.60;99.90;;;;;;5046542;28;20024;-86
2023/09/04 08:45:55;;;;;;;5.70;4.20;;;19.70;99.90;;;;;;5063513;28;20081;-85
2023/09/04 08:48:21;;;;;;;6.32;4.40;;;19.70;99.90;;;;;;5076473;28;20095;-85
2023/09/04 08:50:49;;;;;;;4.93;3.95;;;19.80;99.90;;;;;;5029089;28;20017;-85
2023/09/04 08:53:15;;;;;;;4.70;3.53;;;19.90;99.90;;;;;;5056316;28;20048;-84
2023/09/04 08:55:41;;;;;;;5.55;3.90;;;20.00;99.90;;;;;;5021698;28;20036;-85
2023/09/04 08:58:08;;;;;;;4.63;3.03;;;20.10;99.90;;;;;;5043768;28;20025;-85
2023/09/04 09:00:34;;;;;;;5.18;3.70;;;20.10;99.90;;;;;;5005404;28;20167;-85
2023/09/04 09:03:00;;;;;;;5.20;3.47;;;20.20;99.90;;;;;;5038469;28;20104;-85
2023/09/04 09:05:29;;;;;;;4.63;3.70;;;20.30;99.90;;;;;;5038211;28;20021;-85
2023/09/04 09:07:55;;;;;;;4.97;3.83;;;20.40;99.90;;;;;;5043931;28;20460;-84
2023/09/04 09:10:24;;;;;;;5.22;3.40;;;20.40;99.90;;;;;;5041576;28;20020;-85
2023/09/04 09:12:49;;;;;;;6.60;4.38;;;20.50;99.90;;;;;;5075798;28;20032;-85
2023/09/04 09:15:17;;;;;;;6.40;3.95;;;20.50;99.90;;;;;;5057979;28;20028;-85
2023/09/04 09:17:53;;;;;;;6.70;3.60;;;20.60;99.90;;;;;;5058140;28;20174;-85
2023/09/04 09:20:33;;;;;;;8.07;3.75;;;20.60;99.90;;;;;;5058256;28;20024;-85
2023/09/04 09:22:59;;;;;;;5.05;3.78;;;20.70;99.90;;;;;;5058013;28;20032;-85
2023/09/04 09:25:26;;;;;;;4.22;3.35;;;20.70;99.90;;;;;;5061457;28;20390;-86
2023/09/04 09:28:01;;;;;;;5.22;3.78;;;20.80;99.90;;;;;;5082327;28;20023;-85
2023/09/04 09:30:54;;;;;;;6.93;3.90;;;20.80;99.90;;;;;;5100115;28;20080;-86
2023/09/04 09:33:23;;;;;;;4.88;3.67;;;21.00;99.90;;;;;;5061984;28;20051;-86
2023/09/04 09:35:49;;;;;;;5.90;3.70;;;21.00;99.90;;;;;;5066131;28;20037;-84
2023/09/04 09:38:14;;;;;;;6.32;3.80;;;21.10;99.90;;;;;;5075818;28;20040;-84
2023/09/04 09:40:40;;;;;;;5.10;3.67;;;21.10;99.90;;;;;;5062457;28;20468;-84
2023/09/04 09:43:07;;;;;;;3.95;3.20;;;21.20;99.90;;;;;;5028304;28;20025;-86
2023/09/04 09:45:36;;;;;;;5.82;3.35;;;21.30;99.90;;;;;;5025879;28;20029;-85
2023/09/04 09:48:06;;;;;;;5.50;2.90;;;21.40;99.90;;;;;;5036205;28;20021;-85
2023/09/04 09:50:34;;;;;;;4.03;3.28;;;21.40;99.90;;;;;;5040669;28;20043;-85
2023/09/04 09:53:00;;;;;;;7.07;3.85;;;21.50;99.90;;;;;;5056957;28;20017;-85
2023/09/04 09:55:28;;;;;;;4.32;3.38;;;21.50;99.90;;;;;;5040523;28;20032;-85
2023/09/04 09:57:55;;;;;;;5.43;3.58;;;21.60;99.90;;;;;;5075070;28;20024;-85
2023/09/04 10:00:21;;;;;;;4.65;3.30;;;21.70;99.90;;;;;;5056011;28;20105;-85
2023/09/04 10:02:47;;;;;;;5.15;2.97;;;21.70;99.90;;;;;;5055032;28;20048;-85
2023/09/04 10:05:13;;;;;;;4.35;3.45;;;21.70;99.90;;;;;;5004040;28;20040;-85
2023/09/04 10:07:39;;;;;;;5.25;3.40;;;21.80;99.90;;;;;;5058635;28;20020;-84
2023/09/04 10:10:06;;;;;;;4.03;2.90;;;21.80;99.90;;;;;;5033759;28;20025;-85
2023/09/04 10:12:56;;;;;;;3.53;3.08;;;21.90;99.90;;;;;;5025250;28;20021;-85
2023/09/04 10:15:27;;;;;;;5.00;3.30;;;22.00;99.90;;;;;;5036359;28;20532;-85
2023/09/04 10:18:02;;;;;;;4.90;3.53;;;22.10;99.90;;;;;;5054623;28;20028;-85
2023/09/04 10:20:28;;;;;;;3.63;3.08;;;22.10;99.90;;;;;;5054636;28;20021;-85
2023/09/04 10:23:01;;;;;;;4.32;3.10;;;22.20;99.90;;;;;;5036736;28;20158;-84
2023/09/04 10:25:53;;;;;;;5.85;3.53;;;22.20;99.90;;;;;;5036385;28;20123;-85
2023/09/04 10:28:36;;;;;;;4.75;3.28;;;22.30;99.90;;;;;;5035868;28;20037;-84
2023/09/04 10:31:06;;;;;;;3.28;2.72;;;22.40;99.90;;;;;;5036550;28;20445;-85
2023/09/04 10:33:32;;;;;;;3.93;3.03;;;22.40;99.90;;;;;;5038559;28;20032;-85
2023/09/04 10:35:58;;;;;;;3.58;3.10;;;22.50;99.90;;;;;;5043679;28;20024;-85
2023/09/04 10:38:25;;;;;;;6.43;2.97;;;22.50;99.90;;;;;;5037563;28;20029;-85
2023/09/04 10:40:54;;;;;;;3.88;3.05;;;22.50;99.90;;;;;;5051267;28;20470;-85
2023/09/04 10:43:19;;;;;;;4.97;2.75;;;22.60;99.90;;;;;;5056200;28;20028;-85
2023/09/04 10:46:08;;;;;;;4.35;2.78;;;22.60;99.80;;;;;;5045847;28;20025;-85
2023/09/04 10:48:48;;;;;;;4.95;2.80;;;22.70;99.70;;;;;;5036192;28;20017;-85
2023/09/04 10:51:31;;;;;;;4.32;2.60;;;22.80;99.40;;;;;;5052400;28;20012;-85
2023/09/04 10:54:18;;;;;;;3.10;2.80;;;22.90;99.50;;;;;;5055926;28;20020;-86
2023/09/04 10:56:57;;;;;;;5.18;3.15;;;22.90;99.30;;;;;;5035348;28;20473;-86
2023/09/04 10:59:23;;;;;;;3.42;2.70;;;22.90;99.10;;;;;;5035723;28;20016;-85
2023/09/04 11:01:49;;;;;;;5.97;3.17;;;22.90;99.10;;;;;;5036047;28;20077;-85
2023/09/04 11:04:34;;;;;;;3.85;2.80;;;23.00;99.10;;;;;;5053816;28;20395;-85
2023/09/04 11:07:21;;;;;;;5.00;3.17;;;23.00;99.10;;;;;;5035618;28;20029;-85
2023/09/04 11:10:02;;;;;;;4.80;2.90;;;23.10;98.80;;;;;;5035810;28;20365;-86
2023/09/04 11:12:33;;;;;;;5.80;2.78;;;23.10;98.70;;;;;;5037368;28;20025;-85
2023/09/04 11:14:58;;;;;;;4.63;2.78;;;23.20;98.70;;;;;;5067208;28;20021;-85
2023/09/04 11:17:32;;;;;;;5.03;3.10;;;23.20;98.60;;;;;;5055881;28;20101;-85
2023/09/04 11:20:00;;;;;;;4.57;2.85;;;23.30;98.70;;;;;;5074697;28;20020;-85
2023/09/04 11:22:26;;;;;;;4.43;2.83;;;23.30;98.60;;;;;;5057177;28;20102;-86
2023/09/04 11:24:54;;;;;;;3.83;2.40;;;23.30;98.40;;;;;;5072209;28;20084;-85
2023/09/04 11:27:24;;;;;;;5.20;3.10;;;23.40;98.30;;;;;;5065291;28;20017;-84
2023/09/04 11:29:52;;;;;;;3.55;2.70;;;23.40;98.30;;;;;;5080182;28;20067;-84
2023/09/04 11:32:19;;;;;;;3.83;2.65;;;23.50;97.90;;;;;;5060658;28;20036;-84
2023/09/04 11:34:49;;;;;;;3.17;2.78;;;23.50;97.70;;;;;;5057858;28;20025;-85
2023/09/04 11:37:15;;;;;;;3.15;2.65;;;23.50;97.70;;;;;;5062895;28;20463;-86
2023/09/04 11:40:10;;;;;;;3.33;2.47;;;23.50;97.60;;;;;;5056242;28;20108;-86
2023/09/04 11:42:36;;;;;;;2.97;2.60;;;23.50;97.70;;;;;;5018560;28;20033;-85
2023/09/04 11:45:03;;;;;;;4.95;3.15;;;23.50;97.90;;;;;;5055739;28;20025;-85
2023/09/04 11:47:29;;;;;;;3.47;2.65;;;23.60;97.70;;;;;;5038377;28;20520;-85
2023/09/04 11:49:55;;;;;;;4.68;3.13;;;23.70;97.60;;;;;;5055249;28;20024;-85
2023/09/04 11:52:28;;;;;;;4.20;3.53;;;23.70;97.50;;;;;;5022026;28;20512;-85
2023/09/04 11:54:54;;;;;;;5.15;2.75;;;23.80;97.30;;;;;;5052723;28;20009;-85
2023/09/04 11:57:20;;;;;;;4.28;3.42;;;23.80;97.30;;;;;;5025825;28;20400;-85
2023/09/04 11:59:46;;;;;;;3.70;3.20;;;23.90;97.30;;;;;;5010035;28;20107;-85
2023/09/04 12:02:12;;;;;;;3.85;3.10;;;23.90;97.40;;;;;;5019157;28;20461;-85
2023/09/04 12:04:38;;;;;;;3.85;3.30;;;24.00;97.50;;;;;;5035207;28;20659;-85
2023/09/04 12:07:06;;;;;;;5.35;3.45;;;24.10;97.50;;;;;;5045483;28;20121;-85
2023/09/04 12:09:35;;;;;;;4.43;3.65;;;24.10;97.50;;;;;;5038340;28;20017;-84
2023/09/04 12:12:01;;;;;;;4.40;4.00;;;24.10;97.40;;;;;;5055327;28;20031;-86
2023/09/04 12:14:27;;;;;;;4.85;3.80;;;24.20;97.30;;;;;;5072869;28;20031;-84
2023/09/04 12:16:53;;;;;;;4.50;3.55;;;24.20;97.30;;;;;;5068802;28;20017;-84
2023/09/04 12:19:23;;;;;;;5.07;3.63;;;24.20;97.20;;;;;;5037386;28;20044;-85
2023/09/04 12:21:48;;;;;;;5.97;4.25;;;24.30;97.20;;;;;;5071486;28;20027;-84
2023/09/04 12:24:15;;;;;;;4.60;3.17;;;24.30;97.30;;;;;;5042357;28;20024;-85
2023/09/04 12:26:42;;;;;;;4.22;3.33;;;24.30;97.30;;;;;;5042369;28;20055;-86
2023/09/04 12:29:09;;;;;;;3.42;3.13;;;24.40;97.40;;;;;;5076324;28;20431;-85
2023/09/04 12:31:36;;;;;;;4.07;3.38;;;24.40;97.10;;;;;;5055786;28;20021;-85
2023/09/04 12:34:02;;;;;;;4.60;3.28;;;24.40;97.10;;;;;;5022804;28;20460;-85
2023/09/04 12:36:33;;;;;;;4.93;3.20;;;24.40;97.10;;;;;;5044895;28;20051;-85
2023/09/04 12:38:59;;;;;;;;;;;24.50;96.90;;;;;;5077309;28;20118;-85
2023/09/04 12:41:25;;;;;;;3.13;2.83;;;24.50;96.90;;;;;;5058390;28;20055;-84
2023/09/04 12:43:50;;;;;;;3.78;3.38;;;24.50;97.00;;;;;;5025532;28;20021;-84
2023/09/04 12:46:16;;;;;;;3.58;3.10;;;24.50;97.00;;;;;;5041733;28;20031;-85
2023/09/04 12:48:42;;;;;;;3.40;2.88;;;24.50;97.10;;;;;;5041482;28;20025;-84
2023/09/04 12:51:08;;;;;;;3.35;3.05;;;24.50;97.20;;;;;;5025714;28;20024;-85